createdAt,value
2023-02-14T00:01:26.563Z,12.20
2023-02-14T00:03:54.695Z,13.00
2023-02-14T00:06:22.397Z,12.10
2023-02-14T00:08:52.322Z,11.80
2023-02-14T00:11:20.559Z,12.60
2023-02-14T00:14:06.797Z,11.20
2023-02-14T00:16:34.450Z,11.60
2023-02-14T00:19:05.238Z,10.70
2023-02-14T00:21:38.071Z,11.50
2023-02-14T00:24:08.968Z,10.90
2023-02-14T00:26:40.522Z,11.10
2023-02-14T00:29:12.387Z,11.20
2023-02-14T00:31:40.871Z,11.00
2023-02-14T00:34:09.985Z,9.70
2023-02-14T00:36:38.061Z,10.20
2023-02-14T00:39:08.629Z,11.00
2023-02-14T00:41:38.705Z,10.20
2023-02-14T00:44:07.191Z,11.40
2023-02-14T00:46:35.355Z,10.30
2023-02-14T00:49:03.370Z,11.30
2023-02-14T00:51:31.786Z,10.60
2023-02-14T00:53:59.490Z,10.30
2023-02-14T00:56:27.579Z,11.20
2023-02-14T00:58:55.353Z,10.80
2023-02-14T01:01:23.099Z,9.90
2023-02-14T01:03:50.814Z,10.60
2023-02-14T01:06:19.691Z,11.20
2023-02-14T01:08:47.811Z,9.70
2023-02-14T01:11:17.968Z,10.50
2023-02-14T01:13:48.413Z,9.90
2023-02-14T01:16:19.042Z,10.70
2023-02-14T01:18:47.039Z,9.30
2023-02-14T01:21:22.188Z,10.50
2023-02-14T01:23:52.175Z,10.30
2023-02-14T01:26:21.051Z,11.50
2023-02-14T01:28:49.263Z,9.80
2023-02-14T01:31:23.663Z,10.60
2023-02-14T01:33:52.038Z,10.30
2023-02-14T01:36:28.865Z,10.50
2023-02-14T01:38:59.139Z,10.00
2023-02-14T01:41:29.595Z,10.30
2023-02-14T01:44:03.250Z,11.20
2023-02-14T01:46:33.391Z,11.00
2023-02-14T01:49:05.777Z,10.90
2023-02-14T01:51:36.956Z,10.90
2023-02-14T01:54:06.753Z,12.60
2023-02-14T01:56:38.476Z,10.60
2023-02-14T01:59:08.616Z,11.60
2023-02-14T02:01:36.612Z,12.30
2023-02-14T02:04:10.700Z,10.90
2023-02-14T02:06:42.165Z,11.70
2023-02-14T02:09:23.957Z,11.10
2023-02-14T02:11:51.761Z,11.00
2023-02-14T02:14:21.768Z,12.60
2023-02-14T02:17:14.257Z,11.10
2023-02-14T02:20:10.181Z,11.50
2023-02-14T02:22:53.041Z,11.20
2023-02-14T02:25:32.708Z,11.50
2023-02-14T02:28:19.824Z,12.10
2023-02-14T02:30:53.237Z,12.30
2023-02-14T02:33:58.854Z,12.10
2023-02-14T02:36:58.921Z,12.80
2023-02-14T02:39:55.106Z,12.70
2023-02-14T02:42:49.165Z,12.50
2023-02-14T02:45:34.341Z,12.50
2023-02-14T02:48:08.204Z,12.50
2023-02-14T02:51:00.939Z,13.10
2023-02-14T02:53:39.596Z,13.10
2023-02-14T02:56:34.549Z,13.50
2023-02-14T02:59:18.469Z,13.10
2023-02-14T03:02:13.213Z,15.00
2023-02-14T03:04:53.576Z,14.70
2023-02-14T03:07:34.940Z,15.30
2023-02-14T03:10:21.419Z,14.10
2023-02-14T03:12:54.226Z,14.80
2023-02-14T03:15:31.534Z,15.80
2023-02-14T03:18:02.207Z,15.30
2023-02-14T03:20:38.786Z,15.90
2023-02-14T03:23:28.941Z,15.30
2023-02-14T03:26:12.390Z,16.30
2023-02-14T03:28:59.187Z,15.10
2023-02-14T03:31:58.083Z,16.10
2023-02-14T03:34:35.453Z,16.80
2023-02-14T03:37:12.639Z,17.00
2023-02-14T03:39:49.417Z,16.90
2023-02-14T03:42:21.683Z,16.50
2023-02-14T03:44:51.934Z,17.50
2023-02-14T03:47:23.497Z,16.80
2023-02-14T03:49:55.549Z,17.90
2023-02-14T03:52:25.240Z,17.50
2023-02-14T03:54:55.690Z,17.80
2023-02-14T03:57:30.809Z,17.60
2023-02-14T03:59:59.436Z,16.70
2023-02-14T04:02:40.614Z,16.90
2023-02-14T04:05:21.537Z,18.00
2023-02-14T04:07:51.578Z,19.10
2023-02-14T04:10:20.590Z,18.60
2023-02-14T04:12:48.937Z,20.20
2023-02-14T04:15:16.850Z,20.20
2023-02-14T04:18:04.068Z,20.40
2023-02-14T04:20:31.784Z,19.50
2023-02-14T04:23:01.361Z,19.20
2023-02-14T04:25:30.917Z,19.80
2023-02-14T04:27:58.598Z,19.90
2023-02-14T04:30:26.420Z,21.00
2023-02-14T04:32:54.201Z,19.20
2023-02-14T04:35:21.977Z,19.70
2023-02-14T04:37:49.610Z,21.80
2023-02-14T04:40:17.536Z,19.90
2023-02-14T04:42:46.379Z,20.10
2023-02-14T04:45:14.214Z,20.20
2023-02-14T04:47:41.876Z,20.80
2023-02-14T04:50:09.828Z,21.30
2023-02-14T04:52:37.622Z,21.60
2023-02-14T04:55:05.962Z,21.60
2023-02-14T04:57:33.597Z,20.00
2023-02-14T05:00:01.304Z,20.90
2023-02-14T05:02:29.197Z,21.80
2023-02-14T05:04:56.978Z,21.40
2023-02-14T05:07:24.640Z,22.10
2023-02-14T05:09:52.360Z,22.50
2023-02-14T05:12:20.324Z,22.00
2023-02-14T05:14:48.235Z,22.70
2023-02-14T05:17:15.886Z,21.80
2023-02-14T05:19:43.573Z,23.50
2023-02-14T05:22:11.301Z,23.70
2023-02-14T05:24:38.971Z,24.10
2023-02-14T05:27:07.629Z,25.00
2023-02-14T05:29:35.408Z,25.10
2023-02-14T05:32:03.584Z,23.70
2023-02-14T05:34:31.233Z,23.90
2023-02-14T05:36:58.957Z,25.30
2023-02-14T05:39:26.645Z,23.60
2023-02-14T05:41:55.020Z,22.90
2023-02-14T05:44:23.260Z,23.20
2023-02-14T05:46:51.179Z,22.70
2023-02-14T05:49:18.844Z,23.70
2023-02-14T05:51:46.473Z,22.30
2023-02-14T05:54:14.127Z,22.50
2023-02-14T05:56:41.840Z,23.80
2023-02-14T05:59:09.570Z,22.00
2023-02-14T06:01:37.201Z,22.00
2023-02-14T06:04:04.883Z,23.00
2023-02-14T06:06:32.937Z,21.50
2023-02-14T06:09:01.372Z,21.60
2023-02-14T06:11:29.026Z,21.40
2023-02-14T06:13:56.951Z,21.70
2023-02-14T06:16:24.713Z,23.40
2023-02-14T06:18:52.440Z,23.10
2023-02-14T06:21:20.131Z,24.70
2023-02-14T06:23:47.899Z,26.10
2023-02-14T06:26:15.576Z,25.10
2023-02-14T06:28:43.220Z,26.20
2023-02-14T06:31:17.655Z,27.10
2023-02-14T06:33:45.376Z,26.90
2023-02-14T06:36:13.281Z,26.50
2023-02-14T06:38:41.537Z,26.60
2023-02-14T06:41:10.419Z,29.80
2023-02-14T06:43:38.319Z,28.10
2023-02-14T06:46:06.637Z,28.90
2023-02-14T06:48:34.557Z,29.30
2023-02-14T06:51:02.490Z,27.00
2023-02-14T06:53:30.569Z,27.40
2023-02-14T06:55:58.294Z,29.60
2023-02-14T06:58:26.039Z,28.70
2023-02-14T07:00:57.534Z,28.30
2023-02-14T07:03:26.902Z,28.00
2023-02-14T07:05:54.936Z,26.20
2023-02-14T07:08:23.685Z,26.00
2023-02-14T07:10:56.352Z,28.70
2023-02-14T07:13:24.883Z,26.80
2023-02-14T07:15:52.585Z,26.60
2023-02-14T07:18:20.261Z,25.40
2023-02-14T07:20:49.866Z,23.60
2023-02-14T07:23:17.581Z,25.40
2023-02-14T07:25:45.302Z,25.70
2023-02-14T07:28:12.949Z,24.90
2023-02-14T07:30:40.775Z,24.70
2023-02-14T07:33:08.765Z,25.30
2023-02-14T07:35:36.512Z,26.50
2023-02-14T07:38:04.208Z,28.00
2023-02-14T07:40:31.933Z,28.00
2023-02-14T07:43:00.793Z,30.40
2023-02-14T07:45:28.587Z,29.00
2023-02-14T07:47:56.341Z,30.00
2023-02-14T07:50:24.146Z,31.00
2023-02-14T07:52:51.997Z,30.60
2023-02-14T07:55:19.780Z,30.30
2023-02-14T07:57:48.910Z,30.60
2023-02-14T08:00:16.880Z,30.50
2023-02-14T08:02:44.626Z,29.70
2023-02-14T08:05:12.600Z,31.10
2023-02-14T08:07:40.312Z,31.40
2023-02-14T08:10:08.155Z,32.90
2023-02-14T08:12:54.596Z,30.30
2023-02-14T08:15:41.243Z,30.20
2023-02-14T08:18:08.977Z,28.60
2023-02-14T08:20:36.627Z,28.10
2023-02-14T08:23:04.420Z,27.60
2023-02-14T08:25:32.403Z,26.20
2023-02-14T08:28:02.237Z,26.00
2023-02-14T08:30:30.725Z,26.80
2023-02-14T08:32:58.530Z,26.30
2023-02-14T08:35:26.299Z,24.40
2023-02-14T08:37:54.100Z,24.60
2023-02-14T08:40:21.818Z,24.50
2023-02-14T08:42:49.526Z,23.60
2023-02-14T08:45:17.438Z,22.40
2023-02-14T08:47:45.113Z,21.80
2023-02-14T08:50:15.588Z,22.40
2023-02-14T08:52:46.747Z,23.00
2023-02-14T08:55:14.793Z,21.80
2023-02-14T08:57:42.530Z,23.30
2023-02-14T09:00:10.841Z,23.70
2023-02-14T09:02:38.498Z,23.60
2023-02-14T09:05:08.075Z,22.70
2023-02-14T09:07:36.429Z,23.50
2023-02-14T09:10:04.648Z,23.80
2023-02-14T09:12:32.322Z,23.20
2023-02-14T09:14:59.976Z,23.80
2023-02-14T09:17:27.616Z,25.10
2023-02-14T09:19:55.319Z,24.50
2023-02-14T09:22:23.185Z,25.40
2023-02-14T09:24:50.893Z,25.40
2023-02-14T09:27:18.602Z,24.50
2023-02-14T09:29:46.262Z,25.50
2023-02-14T09:32:15.859Z,25.90
2023-02-14T09:34:43.757Z,25.20
2023-02-14T09:37:30.934Z,24.00
2023-02-14T09:39:58.698Z,22.80
2023-02-14T09:42:44.410Z,23.50
2023-02-14T09:45:19.397Z,24.80
2023-02-14T09:47:46.986Z,24.20
2023-02-14T09:50:22.998Z,24.30
2023-02-14T09:52:54.201Z,24.30
2023-02-14T09:55:22.166Z,25.20
2023-02-14T09:58:02.101Z,26.30
2023-02-14T10:00:34.740Z,26.20
2023-02-14T10:03:24.293Z,25.10
2023-02-14T10:06:20.966Z,23.60
2023-02-14T10:08:58.964Z,24.20
2023-02-14T10:11:28.061Z,24.60
2023-02-14T10:14:06.741Z,25.80
2023-02-14T10:16:39.377Z,29.20
2023-02-14T10:19:21.624Z,27.70
2023-02-14T10:22:00.728Z,27.90
2023-02-14T10:24:53.343Z,26.50
2023-02-14T10:27:39.654Z,28.70
2023-02-14T10:30:17.587Z,27.70
2023-02-14T10:32:48.136Z,27.70
2023-02-14T10:35:49.036Z,26.70
2023-02-14T10:38:32.629Z,26.70
2023-02-14T10:41:06.490Z,24.90
2023-02-14T10:43:47.168Z,27.60
2023-02-14T10:46:42.293Z,26.00
2023-02-14T10:49:45.845Z,26.50
2023-02-14T10:52:25.595Z,21.70
2023-02-14T10:54:59.631Z,58.40
2023-02-14T10:57:40.577Z,22.90
2023-02-14T11:00:22.550Z,21.90
2023-02-14T11:03:01.592Z,32.20
2023-02-14T11:05:46.450Z,44.70
2023-02-14T11:08:32.137Z,25.00
2023-02-14T11:11:40.400Z,22.30
2023-02-14T11:16:52.006Z,28.50
2023-02-14T11:19:28.642Z,27.10
2023-02-14T11:21:59.344Z,27.70
2023-02-14T11:24:35.939Z,28.00
2023-02-14T11:27:14.293Z,27.40
2023-02-14T11:29:44.904Z,29.90
2023-02-14T11:32:16.084Z,30.80
2023-02-14T11:35:01.487Z,31.30
2023-02-14T11:37:37.100Z,30.70
2023-02-14T11:40:06.287Z,33.00
2023-02-14T11:42:36.771Z,31.30
2023-02-14T11:45:05.848Z,30.50
2023-02-14T11:47:41.454Z,31.40
2023-02-14T11:50:23.629Z,30.40
2023-02-14T11:52:54.266Z,31.10
2023-02-14T11:55:26.269Z,30.90
2023-02-14T11:57:55.053Z,30.20
2023-02-14T12:00:23.490Z,29.00
2023-02-14T12:02:51.651Z,28.10
2023-02-14T12:05:33.738Z,26.40
2023-02-14T12:08:06.346Z,29.00
2023-02-14T12:10:35.891Z,28.60
2023-02-14T12:13:09.620Z,29.30
2023-02-14T12:15:43.181Z,29.10
2023-02-14T12:18:16.628Z,26.60
2023-02-14T12:20:53.333Z,26.70
2023-02-14T12:23:44.087Z,26.70
2023-02-14T12:26:37.720Z,28.20
2023-02-14T12:29:26.221Z,30.50
2023-02-14T12:31:55.334Z,29.60
2023-02-14T12:34:23.040Z,28.00
2023-02-14T12:37:21.760Z,28.90
2023-02-14T12:40:12.340Z,30.10
2023-02-14T12:43:05.217Z,29.80
2023-02-14T12:45:51.724Z,28.30
2023-02-14T12:48:38.768Z,25.30
2023-02-14T12:51:17.577Z,25.10
2023-02-14T12:54:14.475Z,27.70
2023-02-14T12:56:56.782Z,28.00
2023-02-14T12:59:29.474Z,30.70
2023-02-14T13:02:31.320Z,29.20
2023-02-14T13:05:40.914Z,26.80
2023-02-14T13:08:38.203Z,26.70
2023-02-14T13:11:34.665Z,25.50
2023-02-14T13:14:21.021Z,27.00
2023-02-14T13:17:12.720Z,28.40
2023-02-14T13:19:55.390Z,30.10
2023-02-14T13:22:25.675Z,31.20
2023-02-14T13:24:59.870Z,31.20
2023-02-14T13:27:32.375Z,31.90
2023-02-14T13:30:18.246Z,30.60
2023-02-14T13:32:46.995Z,32.70
2023-02-14T13:35:17.655Z,30.10
2023-02-14T13:37:50.157Z,29.40
2023-02-14T13:40:22.783Z,27.50
2023-02-14T13:42:50.474Z,31.30
2023-02-14T13:45:36.707Z,26.40
2023-02-14T13:48:16.217Z,32.40
2023-02-14T13:50:54.252Z,28.70
2023-02-14T13:53:31.582Z,35.10
2023-02-14T13:56:00.389Z,29.10
2023-02-14T13:58:28.690Z,25.70
2023-02-14T14:00:56.418Z,27.30
2023-02-14T14:03:27.240Z,31.00
2023-02-14T14:06:08.364Z,30.50
2023-02-14T14:08:44.532Z,30.70
2023-02-14T14:11:13.967Z,30.10
2023-02-14T14:13:41.919Z,32.20
2023-02-14T14:16:19.722Z,32.50
2023-02-14T14:18:47.536Z,36.70
2023-02-14T14:21:23.892Z,30.70
2023-02-14T14:24:22.888Z,29.20
2023-02-14T14:26:53.308Z,29.70
2023-02-14T14:29:31.459Z,32.40
2023-02-14T14:31:59.104Z,32.80
2023-02-14T14:34:28.440Z,33.10
2023-02-14T14:37:07.635Z,32.30
2023-02-14T14:39:35.867Z,29.90
2023-02-14T14:42:16.043Z,31.10
2023-02-14T14:44:55.624Z,27.30
2023-02-14T14:47:26.028Z,26.10
2023-02-14T14:49:59.406Z,23.90
2023-02-14T14:52:36.226Z,23.70
2023-02-14T14:55:06.508Z,27.70
2023-02-14T14:57:36.256Z,40.70
2023-02-14T15:00:07.400Z,38.30
2023-02-14T15:02:35.341Z,34.20
2023-02-14T15:05:27.780Z,34.20
2023-02-14T15:07:55.682Z,42.80
2023-02-14T15:10:28.756Z,32.20
2023-02-14T15:13:17.301Z,36.90
2023-02-14T15:15:51.045Z,80.80
2023-02-14T15:18:20.814Z,147.20
2023-02-14T15:20:49.918Z,136.40
2023-02-14T15:23:21.127Z,65.90
2023-02-14T15:25:49.718Z,55.30
2023-02-14T15:28:27.320Z,32.90
2023-02-14T15:31:00.339Z,32.70
2023-02-14T15:33:29.114Z,31.10
2023-02-14T15:35:58.618Z,39.10
2023-02-14T15:38:26.636Z,40.60
2023-02-14T15:40:54.729Z,33.40
2023-02-14T15:43:32.429Z,33.60
2023-02-14T15:46:15.036Z,70.20
2023-02-14T15:48:43.463Z,45.30
2023-02-14T15:51:43.981Z,50.40
2023-02-14T15:54:31.936Z,42.50
2023-02-14T15:57:00.199Z,47.70
2023-02-14T15:59:31.214Z,50.80
2023-02-14T16:02:33.095Z,51.70
2023-02-14T16:05:25.072Z,39.60
2023-02-14T16:08:05.871Z,46.10
2023-02-14T16:10:35.599Z,41.90
2023-02-14T16:13:06.628Z,61.30
2023-02-14T16:15:36.658Z,46.40
2023-02-14T16:18:32.017Z,55.60
2023-02-14T16:21:31.641Z,53.50
2023-02-14T16:24:05.377Z,72.30
2023-02-14T16:26:35.444Z,62.60
2023-02-14T16:29:04.268Z,83.40
2023-02-14T16:31:33.401Z,59.00
2023-02-14T16:34:01.220Z,57.40
2023-02-14T16:36:33.178Z,80.10
2023-02-14T16:39:04.999Z,74.70
2023-02-14T16:41:34.233Z,51.40
2023-02-14T16:44:02.175Z,78.80
2023-02-14T16:46:31.729Z,46.00
2023-02-14T16:48:59.862Z,49.80
2023-02-14T16:51:30.246Z,39.80
2023-02-14T16:54:00.503Z,44.80
2023-02-14T16:56:48.912Z,40.00
2023-02-14T16:59:16.630Z,55.10
2023-02-14T17:01:44.491Z,54.90
2023-02-14T17:04:12.212Z,48.40
2023-02-14T17:06:42.641Z,48.10
2023-02-14T17:09:12.676Z,53.60
2023-02-14T17:11:44.797Z,61.40
2023-02-14T17:14:15.221Z,65.00
2023-02-14T17:16:43.337Z,55.80
2023-02-14T17:19:11.815Z,40.80
2023-02-14T17:21:39.830Z,40.50
2023-02-14T17:24:07.824Z,41.40
2023-02-14T17:26:38.096Z,41.10
2023-02-14T17:29:06.846Z,44.20
2023-02-14T17:31:34.905Z,43.90
2023-02-14T17:34:02.727Z,44.50
2023-02-14T17:36:30.345Z,42.00
2023-02-14T17:38:58.165Z,41.70
2023-02-14T17:41:26.428Z,39.10
2023-02-14T17:43:54.903Z,38.80
2023-02-14T17:46:22.649Z,39.50
2023-02-14T17:48:50.352Z,43.50
2023-02-14T17:51:20.336Z,41.10
2023-02-14T17:53:48.962Z,49.40
2023-02-14T17:56:21.961Z,52.10
2023-02-14T17:58:51.471Z,45.60
2023-02-14T18:01:22.190Z,41.70
2023-02-14T18:03:51.942Z,38.60
2023-02-14T18:06:19.917Z,41.30
2023-02-14T18:08:49.918Z,42.60
2023-02-14T18:11:19.093Z,51.50
2023-02-14T18:13:47.385Z,40.10
2023-02-14T18:16:17.891Z,47.00
2023-02-14T18:18:45.851Z,54.70
2023-02-14T18:21:15.871Z,46.40
2023-02-14T18:23:43.570Z,45.00
2023-02-14T18:26:13.653Z,43.80
2023-02-14T18:28:41.595Z,43.10
2023-02-14T18:31:12.758Z,41.90
2023-02-14T18:33:40.988Z,43.40
2023-02-14T18:36:12.113Z,45.40
2023-02-14T18:38:44.788Z,44.60
2023-02-14T18:41:15.265Z,41.90
2023-02-14T18:43:44.556Z,44.80
2023-02-14T18:46:15.266Z,43.60
2023-02-14T18:48:43.740Z,42.70
2023-02-14T18:51:11.426Z,44.10
2023-02-14T18:53:40.136Z,43.80
2023-02-14T18:56:16.625Z,46.70
2023-02-14T18:58:50.385Z,55.70
2023-02-14T19:01:21.032Z,53.60
2023-02-14T19:03:50.078Z,60.30
2023-02-14T19:06:18.213Z,51.10
2023-02-14T19:08:46.395Z,90.10
2023-02-14T19:11:16.572Z,87.30
2023-02-14T19:13:46.039Z,95.60
2023-02-14T19:16:16.400Z,71.40
2023-02-14T19:18:44.224Z,105.50
2023-02-14T19:21:13.836Z,140.10
2023-02-14T19:23:41.844Z,96.10
2023-02-14T19:26:23.095Z,51.80
2023-02-14T19:28:55.291Z,46.10
2023-02-14T19:31:23.638Z,47.80
2023-02-14T19:33:51.563Z,56.00
2023-02-14T19:36:20.806Z,60.00
2023-02-14T19:38:51.203Z,45.80
2023-02-14T19:41:24.576Z,45.60
2023-02-14T19:43:55.253Z,45.50
2023-02-14T19:46:24.282Z,45.10
2023-02-14T19:48:52.296Z,48.70
2023-02-14T19:51:25.754Z,43.70
2023-02-14T19:53:54.470Z,41.50
2023-02-14T19:56:24.734Z,42.60
2023-02-14T19:58:52.951Z,39.90
2023-02-14T20:01:41.825Z,40.10
2023-02-14T20:04:13.629Z,39.20
2023-02-14T20:06:42.994Z,37.40
2023-02-14T20:09:11.490Z,40.00
2023-02-14T20:11:51.348Z,43.10
2023-02-14T20:14:26.668Z,40.10
2023-02-14T20:16:56.565Z,40.90
2023-02-14T20:19:29.639Z,41.10
2023-02-14T20:21:57.328Z,45.20
2023-02-14T20:24:27.944Z,66.80
2023-02-14T20:26:56.291Z,66.50
2023-02-14T20:29:25.363Z,64.80
2023-02-14T20:31:55.240Z,52.90
2023-02-14T20:34:22.976Z,50.70
2023-02-14T20:36:53.062Z,40.30
2023-02-14T20:39:22.000Z,52.50
2023-02-14T20:41:50.346Z,61.80
2023-02-14T20:44:22.120Z,57.30
2023-02-14T20:46:52.130Z,64.80
2023-02-14T20:49:21.632Z,60.60
2023-02-14T20:51:50.493Z,52.70
2023-02-14T20:54:19.543Z,56.30
2023-02-14T20:56:48.036Z,55.40
2023-02-14T20:59:15.752Z,47.30
2023-02-14T21:01:43.467Z,42.90
2023-02-14T21:04:11.460Z,47.40
2023-02-14T21:06:40.149Z,41.60
2023-02-14T21:09:08.643Z,44.00
2023-02-14T21:11:36.358Z,58.20
2023-02-14T21:14:04.066Z,58.80
2023-02-14T21:16:31.780Z,45.40
2023-02-14T21:19:00.126Z,53.30
2023-02-14T21:21:34.780Z,45.80
2023-02-14T21:24:07.802Z,38.50
2023-02-14T21:26:36.764Z,37.90
2023-02-14T21:29:05.533Z,41.50
2023-02-14T21:31:33.752Z,50.40
2023-02-14T21:34:02.414Z,49.70
2023-02-14T21:36:32.308Z,44.30
2023-02-14T21:39:00.331Z,45.30
2023-02-14T21:41:29.532Z,57.20
2023-02-14T21:43:58.522Z,52.90
2023-02-14T21:46:31.162Z,55.80
2023-02-14T21:49:19.132Z,48.40
2023-02-14T21:51:47.860Z,52.40
2023-02-14T21:54:15.747Z,78.80
2023-02-14T21:56:43.827Z,66.00
2023-02-14T21:59:12.151Z,54.30
2023-02-14T22:01:41.154Z,58.40
2023-02-14T22:04:11.062Z,51.70
2023-02-14T22:06:40.509Z,54.20
2023-02-14T22:09:09.217Z,53.50
2023-02-14T22:11:36.900Z,45.20
2023-02-14T22:14:04.906Z,50.90
2023-02-14T22:16:32.937Z,58.30
2023-02-14T22:19:00.710Z,51.20
2023-02-14T22:21:28.571Z,51.40
2023-02-14T22:23:56.281Z,52.40
2023-02-14T22:26:27.337Z,51.40
2023-02-14T22:28:57.219Z,46.00
2023-02-14T22:31:26.998Z,46.20
2023-02-14T22:33:54.999Z,39.60
2023-02-14T22:36:22.652Z,42.50
2023-02-14T22:38:50.364Z,53.60
2023-02-14T22:41:20.488Z,47.10
2023-02-14T22:43:48.552Z,43.10
2023-02-14T22:46:25.345Z,41.00
2023-02-14T22:48:53.906Z,39.60
2023-02-14T22:51:21.578Z,41.00
2023-02-14T22:53:50.861Z,47.90
2023-02-14T22:56:21.896Z,57.60
2023-02-14T22:58:54.247Z,53.40
2023-02-14T23:01:22.912Z,48.70
2023-02-14T23:03:56.832Z,44.30
2023-02-14T23:06:27.391Z,40.50
2023-02-14T23:08:56.008Z,40.40
2023-02-14T23:11:34.165Z,41.20
2023-02-14T23:14:20.660Z,47.40
2023-02-14T23:17:07.235Z,47.50
2023-02-14T23:19:54.882Z,45.20
2023-02-14T23:22:23.994Z,42.30
2023-02-14T23:24:53.845Z,43.00
2023-02-14T23:27:24.927Z,45.20
2023-02-14T23:29:52.616Z,39.10
2023-02-14T23:32:22.491Z,42.00
2023-02-14T23:34:50.239Z,43.90
2023-02-14T23:37:17.988Z,44.30
2023-02-14T23:39:45.624Z,42.80
2023-02-14T23:42:14.757Z,41.60
2023-02-14T23:44:43.336Z,36.90
2023-02-14T23:47:12.254Z,40.50
2023-02-14T23:49:40.803Z,39.70
2023-02-14T23:52:10.582Z,37.80
2023-02-14T23:54:38.973Z,39.90
2023-02-14T23:57:07.478Z,41.60
2023-02-14T23:59:35.511Z,40.40
